Aviation Digital Data Service (ADDS)

Output produced by METARs form (0124 UTC 22 January 2020)
found at http://aviationweather.gov/metar/data/
 
METAR text: ETNT 220112Z 26009KT 5000 BR BKN004 BKN008 05/03 Q1035 YLO
Conditions at: ETNT (WITTMUNDHAVEN(GA, DE) observed 0112 UTC 22 January 2020
Temperature: 5.0°C (41°F)
Dewpoint: 3.0°C (37°F) [RH = 87%]
Pressure (altimeter): 30.56 inches Hg (1035.0 mb)
Winds: from the W (260 degrees) at 10 MPH (9 knots; 4.6 m/s)
Visibility: 3 miles ( 5 km)
Ceiling: 400 feet AGL
Clouds: broken clouds at 400 feet AGL
broken clouds at 800 feet AGL
Weather: BR  (mist)

Forecast for: ETNT (WITTMUNDHAVEN(GA, DE)
Text: TAF ETNT 212310Z 2200/2209 23010KT 4000 BR BKN008
Forecast period: 0000 to 0900 UTC 22 January 2020
Forecast type: FROM: standard forecast or significant change
Winds: from the SW (230 degrees) at 12 MPH (10 knots; 5.1 m/s)
Visibility: 2.49 miles (4.01 km)
Ceiling: 800 feet AGL
Clouds: broken clouds at 800 feet AGL
Weather: BR  (mist)
Text: TEMPO 2200/2209 25012KT 1500 -DZ OVC002 BY ETGL
Forecast period: 0000 to 0900 UTC 22 January 2020
Forecast type: TEMPORARY: The following changes expected for less than half the time period
Winds: from the WSW (250 degrees) at 14 MPH (12 knots; 6.2 m/s)
Visibility: 0.93 miles (1.50 km)
Ceiling: 200 feet AGL
Clouds: overcast cloud deck at 200 feet AGL
Weather: -DZ  (light drizzle)